createdAt,value
2023-02-05T00:01:46.145Z,1.90
2023-02-05T00:04:13.584Z,2.00
2023-02-05T00:06:40.691Z,2.10
2023-02-05T00:09:07.916Z,2.20
2023-02-05T00:11:35.020Z,2.30
2023-02-05T00:14:02.290Z,2.30
2023-02-05T00:16:31.220Z,2.30
2023-02-05T00:18:58.455Z,2.40
2023-02-05T00:21:25.671Z,2.40
2023-02-05T00:23:53.350Z,2.50
2023-02-05T00:26:20.865Z,2.50
2023-02-05T00:28:48.539Z,2.50
2023-02-05T00:31:22.212Z,2.50
2023-02-05T00:33:51.102Z,2.60
2023-02-05T00:36:20.319Z,2.60
2023-02-05T00:38:48.243Z,2.60
2023-02-05T00:41:16.053Z,2.60
2023-02-05T00:43:44.095Z,2.70
2023-02-05T00:46:13.008Z,2.70
2023-02-05T00:48:41.629Z,2.80
2023-02-05T00:51:10.327Z,2.70
2023-02-05T00:53:38.298Z,2.70
2023-02-05T00:56:05.783Z,2.60
2023-02-05T00:58:33.983Z,2.60
2023-02-05T01:01:01.247Z,2.50
2023-02-05T01:03:28.515Z,2.40
2023-02-05T01:05:55.700Z,2.30
2023-02-05T01:08:23.310Z,2.30
2023-02-05T01:10:52.356Z,2.20
2023-02-05T01:13:20.075Z,2.10
2023-02-05T01:15:47.509Z,2.00
2023-02-05T01:18:14.703Z,1.80
2023-02-05T01:20:43.311Z,1.60
2023-02-05T01:23:11.702Z,1.50
2023-02-05T01:25:39.795Z,1.40
2023-02-05T01:28:07.147Z,1.30
2023-02-05T01:30:35.345Z,1.10
2023-02-05T01:33:03.737Z,1.10
2023-02-05T01:35:30.898Z,0.90
2023-02-05T01:37:57.988Z,0.80
2023-02-05T01:40:25.133Z,0.60
2023-02-05T01:42:52.204Z,0.40
2023-02-05T01:45:22.108Z,0.40
2023-02-05T01:47:55.828Z,0.30
2023-02-05T01:50:38.099Z,0.10
2023-02-05T01:53:28.589Z,0.10
2023-02-05T01:56:01.623Z,0.00
2023-02-05T01:58:36.480Z,-0.10
2023-02-05T02:01:03.654Z,-0.20
2023-02-05T02:03:32.283Z,-0.20
2023-02-05T02:05:59.484Z,-0.20
2023-02-05T02:08:27.039Z,-0.30
2023-02-05T02:10:57.028Z,-0.40
2023-02-05T02:13:27.351Z,-0.30
2023-02-05T02:15:55.804Z,-0.40
2023-02-05T02:18:27.368Z,-0.40
2023-02-05T02:21:50.884Z,-0.40
2023-02-05T02:25:05.417Z,-0.40
2023-02-05T02:28:07.281Z,-0.40
2023-02-05T02:30:50.834Z,-0.40
2023-02-05T02:33:31.517Z,-0.40
2023-02-05T02:36:21.271Z,-0.40
2023-02-05T02:39:10.396Z,-0.30
2023-02-05T02:41:53.182Z,-0.30
2023-02-05T02:44:42.666Z,-0.20
2023-02-05T02:47:20.895Z,-0.20
2023-02-05T02:50:03.989Z,-0.10
2023-02-05T02:52:37.234Z,-0.10
2023-02-05T02:55:10.695Z,-0.10
2023-02-05T02:57:41.749Z,-0.20
2023-02-05T03:00:25.779Z,-0.20
2023-02-05T03:03:00.952Z,-0.20
2023-02-05T03:05:29.912Z,-0.30
2023-02-05T03:08:05.767Z,-0.20
2023-02-05T03:10:55.972Z,-0.20
2023-02-05T03:13:23.306Z,-0.20
2023-02-05T03:15:50.708Z,-0.20
2023-02-05T03:18:20.673Z,-0.10
2023-02-05T03:21:05.980Z,-0.10
2023-02-05T03:23:33.097Z,0.10
2023-02-05T03:26:00.331Z,0.10
2023-02-05T03:28:30.091Z,0.20
2023-02-05T03:32:08.072Z,0.20
2023-02-05T03:34:51.746Z,0.30
2023-02-05T03:38:03.101Z,0.40
2023-02-05T03:40:45.743Z,0.40
2023-02-05T03:43:36.235Z,0.40
2023-02-05T03:46:21.619Z,0.40
2023-02-05T03:49:53.842Z,0.50
2023-02-05T03:52:35.808Z,0.50
2023-02-05T03:55:12.963Z,0.70
2023-02-05T03:58:09.418Z,0.70
2023-02-05T04:00:36.908Z,0.80
2023-02-05T04:03:04.631Z,0.90
2023-02-05T04:05:32.250Z,0.90
2023-02-05T04:07:59.557Z,0.90
2023-02-05T04:10:26.597Z,0.90
2023-02-05T04:12:53.716Z,0.90
2023-02-05T04:15:20.772Z,0.90
2023-02-05T04:17:47.830Z,0.90
2023-02-05T04:20:15.152Z,1.00
2023-02-05T04:22:43.364Z,1.00
2023-02-05T04:25:10.458Z,1.00
2023-02-05T04:27:37.802Z,1.00
2023-02-05T04:30:06.887Z,1.00
2023-02-05T04:32:34.081Z,0.90
2023-02-05T04:35:01.210Z,1.00
2023-02-05T04:37:28.442Z,1.00
2023-02-05T04:39:55.521Z,1.00
2023-02-05T04:42:22.748Z,1.00
2023-02-05T04:44:49.850Z,1.10
2023-02-05T04:47:16.906Z,1.20
2023-02-05T04:49:44.015Z,1.30
2023-02-05T04:52:11.266Z,1.30
2023-02-05T04:54:38.666Z,1.40
2023-02-05T04:57:05.858Z,1.40
2023-02-05T04:59:32.940Z,1.50
2023-02-05T05:02:00.548Z,1.50
2023-02-05T05:04:27.718Z,1.50
2023-02-05T05:06:54.833Z,1.60
2023-02-05T05:09:24.180Z,1.50
2023-02-05T05:11:55.228Z,1.60
2023-02-05T05:14:22.762Z,1.50
2023-02-05T05:16:50.862Z,1.60
2023-02-05T05:19:18.094Z,1.60
2023-02-05T05:21:45.333Z,1.60
2023-02-05T05:24:12.527Z,1.50
2023-02-05T05:26:43.911Z,1.50
2023-02-05T05:29:14.811Z,1.50
2023-02-05T05:31:42.719Z,1.50
2023-02-05T05:34:09.884Z,1.60
2023-02-05T05:36:37.003Z,1.40
2023-02-05T05:39:22.748Z,1.40
2023-02-05T05:42:08.355Z,1.30
2023-02-05T05:44:35.464Z,1.30
2023-02-05T05:47:02.535Z,1.30
2023-02-05T05:49:29.647Z,1.40
2023-02-05T05:51:56.724Z,1.40
2023-02-05T05:54:23.798Z,1.50
2023-02-05T05:56:50.876Z,1.60
2023-02-05T05:59:18.022Z,1.60
2023-02-05T06:01:45.165Z,1.70
2023-02-05T06:04:12.303Z,1.80
2023-02-05T06:06:39.537Z,1.90
2023-02-05T06:09:06.654Z,1.90
2023-02-05T06:11:33.777Z,1.90
2023-02-05T06:14:00.902Z,1.90
2023-02-05T06:16:28.001Z,1.90
2023-02-05T06:18:56.040Z,1.90
2023-02-05T06:21:23.236Z,1.80
2023-02-05T06:23:50.367Z,1.70
2023-02-05T06:26:17.469Z,1.60
2023-02-05T06:28:44.641Z,1.50
2023-02-05T06:31:11.826Z,1.40
2023-02-05T06:33:38.970Z,1.50
2023-02-05T06:36:06.906Z,1.50
2023-02-05T06:38:33.999Z,1.60
2023-02-05T06:41:01.324Z,1.60
2023-02-05T06:43:29.612Z,1.70
2023-02-05T06:45:56.797Z,1.80
2023-02-05T06:48:23.894Z,1.90
2023-02-05T06:50:51.029Z,1.90
2023-02-05T06:53:18.116Z,2.00
2023-02-05T06:55:45.302Z,1.90
2023-02-05T06:58:12.454Z,1.90
2023-02-05T07:00:39.720Z,1.90
2023-02-05T07:03:06.782Z,1.90
2023-02-05T07:05:35.071Z,1.90
2023-02-05T07:08:04.197Z,1.80
2023-02-05T07:10:31.302Z,1.60
2023-02-05T07:12:58.655Z,1.60
2023-02-05T07:15:25.726Z,1.50
2023-02-05T07:17:52.801Z,1.50
2023-02-05T07:20:20.085Z,1.50
2023-02-05T07:22:47.310Z,1.50
2023-02-05T07:25:14.538Z,1.50
2023-02-05T07:27:41.977Z,1.50
2023-02-05T07:30:10.057Z,1.50
2023-02-05T07:32:37.307Z,1.60
2023-02-05T07:35:04.982Z,1.70
2023-02-05T07:37:32.224Z,1.80
2023-02-05T07:39:59.290Z,1.90
2023-02-05T07:42:26.403Z,1.90
2023-02-05T07:44:53.477Z,2.00
2023-02-05T07:47:20.572Z,2.00
2023-02-05T07:49:47.647Z,2.10
2023-02-05T07:52:15.062Z,2.10
2023-02-05T07:54:42.500Z,2.10
2023-02-05T07:57:09.986Z,2.10
2023-02-05T07:59:37.115Z,2.10
2023-02-05T08:02:04.295Z,2.10
2023-02-05T08:04:31.544Z,2.10
2023-02-05T08:06:58.711Z,2.10
2023-02-05T08:09:25.770Z,2.20
2023-02-05T08:11:52.910Z,2.20
2023-02-05T08:14:20.075Z,2.30
2023-02-05T08:16:47.352Z,2.30
2023-02-05T08:19:18.632Z,2.30
2023-02-05T08:21:48.347Z,2.30
2023-02-05T08:24:15.587Z,2.10
2023-02-05T08:26:42.776Z,2.00
2023-02-05T08:29:11.019Z,2.00
2023-02-05T08:31:38.878Z,2.00
2023-02-05T08:34:06.113Z,2.10
2023-02-05T08:36:33.313Z,2.20
2023-02-05T08:39:00.380Z,2.20
2023-02-05T08:41:28.614Z,2.30
2023-02-05T08:43:55.753Z,2.40
2023-02-05T08:46:29.581Z,2.50
2023-02-05T08:48:58.805Z,2.50
2023-02-05T08:51:25.868Z,2.60
2023-02-05T08:53:53.637Z,2.70
2023-02-05T08:56:20.824Z,2.80
2023-02-05T08:58:47.915Z,2.90
2023-02-05T09:01:18.118Z,2.90
2023-02-05T09:03:46.028Z,2.90
2023-02-05T09:06:15.576Z,3.00
2023-02-05T09:08:43.048Z,3.00
2023-02-05T09:11:13.613Z,3.00
2023-02-05T09:13:41.299Z,3.00
2023-02-05T09:16:11.548Z,3.10
2023-02-05T09:18:38.944Z,3.20
2023-02-05T09:21:10.985Z,3.20
2023-02-05T09:23:38.847Z,3.30
2023-02-05T09:26:07.087Z,3.40
2023-02-05T09:28:34.358Z,3.50
2023-02-05T09:31:10.815Z,3.50
2023-02-05T09:33:38.120Z,3.40
2023-02-05T09:36:14.998Z,3.40
2023-02-05T09:38:42.480Z,3.50
2023-02-05T09:41:43.017Z,3.50
2023-02-05T09:44:46.519Z,3.50
2023-02-05T09:47:22.634Z,3.50
2023-02-05T09:50:05.613Z,3.40
2023-02-05T09:52:44.919Z,3.50
2023-02-05T09:55:21.696Z,3.40
2023-02-05T09:57:50.268Z,3.50
2023-02-05T10:00:32.480Z,3.50
2023-02-05T10:03:42.799Z,3.60
2023-02-05T10:06:47.533Z,3.60
2023-02-05T10:09:51.329Z,3.60
2023-02-05T10:12:54.890Z,3.70
2023-02-05T10:15:59.306Z,3.70
2023-02-05T10:18:48.514Z,3.80
2023-02-05T10:21:21.339Z,3.90
2023-02-05T10:24:17.794Z,3.90
2023-02-05T10:26:51.733Z,3.80
2023-02-05T10:29:44.868Z,3.80
2023-02-05T10:32:25.878Z,3.80
2023-02-05T10:35:22.764Z,3.80
2023-02-05T10:37:57.788Z,3.90
2023-02-05T10:40:32.964Z,3.90
2023-02-05T10:43:23.665Z,3.90
2023-02-05T10:45:53.150Z,3.90
2023-02-05T10:49:04.844Z,3.90
2023-02-05T10:51:40.781Z,3.80
2023-02-05T10:54:35.997Z,3.70
2023-02-05T10:57:03.098Z,3.70
2023-02-05T10:59:38.780Z,3.70
2023-02-05T11:02:09.975Z,3.80
2023-02-05T11:04:50.682Z,3.80
2023-02-05T11:07:43.879Z,3.90
2023-02-05T11:10:19.696Z,3.80
2023-02-05T11:12:52.256Z,4.00
2023-02-05T11:15:29.801Z,4.10
2023-02-05T11:18:06.476Z,4.10
2023-02-05T11:20:39.603Z,4.10
2023-02-05T11:23:15.016Z,4.20
2023-02-05T11:25:51.597Z,4.10
2023-02-05T11:28:37.595Z,4.20
2023-02-05T11:31:35.106Z,4.20
2023-02-05T11:34:08.078Z,4.20
2023-02-05T11:36:38.371Z,4.30
2023-02-05T11:39:07.170Z,4.40
2023-02-05T11:41:48.660Z,4.40
2023-02-05T11:44:30.117Z,4.40
2023-02-05T11:47:00.366Z,4.30
2023-02-05T11:49:37.102Z,4.30
2023-02-05T11:52:15.153Z,4.30
2023-02-05T11:54:47.658Z,4.40
2023-02-05T11:57:17.614Z,4.30
2023-02-05T11:59:57.885Z,4.30
2023-02-05T12:02:31.225Z,4.40
2023-02-05T12:05:04.352Z,4.40
2023-02-05T12:07:43.778Z,4.40
2023-02-05T12:10:39.848Z,4.50
2023-02-05T12:13:44.094Z,4.50
2023-02-05T12:16:48.574Z,4.50
2023-02-05T12:19:24.166Z,4.40
2023-02-05T12:22:25.229Z,4.40
2023-02-05T12:25:11.892Z,4.40
2023-02-05T12:27:53.820Z,4.50
2023-02-05T12:30:31.430Z,4.50
2023-02-05T12:33:23.944Z,4.50
2023-02-05T12:36:22.663Z,4.50
2023-02-05T12:39:05.038Z,4.50
2023-02-05T12:42:11.774Z,4.50
2023-02-05T12:45:15.734Z,4.50
2023-02-05T12:48:27.524Z,4.40
2023-02-05T12:51:40.775Z,4.40
2023-02-05T12:54:47.677Z,4.30
2023-02-05T12:57:24.265Z,4.10
2023-02-05T12:59:59.121Z,4.00
2023-02-05T13:02:48.431Z,4.00
2023-02-05T13:05:35.172Z,4.00
2023-02-05T13:08:19.550Z,4.00
2023-02-05T13:11:31.268Z,4.10
2023-02-05T13:14:04.062Z,4.00
2023-02-05T13:16:43.483Z,4.10
2023-02-05T13:19:39.412Z,4.10
2023-02-05T13:22:59.154Z,4.10
2023-02-05T13:25:59.273Z,4.10
2023-02-05T13:28:42.751Z,4.20
2023-02-05T13:31:49.579Z,4.30
2023-02-05T13:34:19.405Z,4.30
2023-02-05T13:37:01.277Z,4.30
2023-02-05T13:39:57.589Z,4.30
2023-02-05T13:42:55.969Z,4.20
2023-02-05T13:46:13.402Z,4.20
2023-02-05T13:49:05.022Z,4.10
2023-02-05T13:51:49.747Z,4.10
2023-02-05T13:54:40.368Z,4.20
2023-02-05T13:57:59.387Z,4.30
2023-02-05T14:00:29.223Z,4.40
2023-02-05T14:02:57.771Z,4.60
2023-02-05T14:05:41.651Z,4.80
2023-02-05T14:08:26.138Z,4.90
2023-02-05T14:11:05.207Z,5.00
2023-02-05T14:13:34.627Z,4.90
2023-02-05T14:16:26.501Z,4.90
2023-02-05T14:19:02.779Z,4.90
2023-02-05T14:21:32.803Z,4.70
2023-02-05T14:24:21.713Z,4.60
2023-02-05T14:26:59.706Z,4.60
2023-02-05T14:29:42.178Z,4.50
2023-02-05T14:32:30.661Z,4.40
2023-02-05T14:35:23.924Z,4.20
2023-02-05T14:37:51.597Z,4.10
2023-02-05T14:40:27.616Z,4.20
2023-02-05T14:43:10.479Z,4.30
2023-02-05T14:45:48.430Z,4.30
2023-02-05T14:48:33.910Z,4.40
2023-02-05T14:51:09.412Z,4.40
2023-02-05T14:53:38.638Z,4.40
2023-02-05T14:56:06.279Z,4.40
2023-02-05T14:58:45.224Z,4.30
2023-02-05T15:01:42.103Z,4.30
2023-02-05T15:04:27.904Z,4.30
2023-02-05T15:06:59.989Z,4.30
2023-02-05T15:10:03.640Z,4.20
2023-02-05T15:13:20.719Z,4.20
2023-02-05T15:16:09.497Z,4.20
2023-02-05T15:18:58.211Z,4.10
2023-02-05T15:21:35.253Z,4.10
2023-02-05T15:24:17.984Z,4.10
2023-02-05T15:26:56.672Z,4.10
2023-02-05T15:29:40.808Z,4.00
2023-02-05T15:32:24.805Z,4.00
2023-02-05T15:35:05.770Z,3.90
2023-02-05T15:37:54.882Z,3.90
2023-02-05T15:40:31.782Z,3.90
2023-02-05T15:43:10.212Z,3.80
2023-02-05T15:45:47.197Z,3.80
2023-02-05T15:48:18.080Z,3.80
2023-02-05T15:50:58.129Z,3.80
2023-02-05T15:53:36.994Z,3.80
2023-02-05T15:56:25.348Z,3.80
2023-02-05T15:58:53.269Z,3.90
2023-02-05T16:01:36.210Z,3.80
2023-02-05T16:04:18.711Z,3.80
2023-02-05T16:06:45.968Z,3.80
2023-02-05T16:09:19.856Z,3.80
2023-02-05T16:11:50.565Z,3.80
2023-02-05T16:14:21.851Z,3.80
2023-02-05T16:17:23.302Z,3.80
2023-02-05T16:20:02.159Z,3.80
2023-02-05T16:22:42.550Z,3.80
2023-02-05T16:25:32.203Z,3.80
2023-02-05T16:28:04.870Z,3.80
2023-02-05T16:30:42.727Z,3.80
2023-02-05T16:33:45.376Z,3.70
2023-02-05T16:36:24.800Z,3.70
2023-02-05T16:39:02.357Z,3.70
2023-02-05T16:41:36.251Z,3.60
2023-02-05T16:44:08.908Z,3.60
2023-02-05T16:46:37.147Z,3.70
2023-02-05T16:49:24.691Z,3.70
2023-02-05T16:51:55.517Z,3.60
2023-02-05T16:54:31.634Z,3.50
2023-02-05T16:57:04.390Z,3.50
2023-02-05T16:59:50.508Z,3.40
2023-02-05T17:02:41.187Z,3.50
2023-02-05T17:05:25.233Z,3.50
2023-02-05T17:08:08.602Z,3.50
2023-02-05T17:11:35.492Z,3.50
2023-02-05T17:14:31.577Z,3.40
2023-02-05T17:17:25.114Z,3.40
2023-02-05T17:20:09.591Z,3.30
2023-02-05T17:22:36.691Z,3.30
2023-02-05T17:25:05.794Z,3.30
2023-02-05T17:27:37.582Z,3.30
2023-02-05T17:30:13.710Z,3.30
2023-02-05T17:32:40.849Z,3.30
2023-02-05T17:35:15.900Z,3.30
2023-02-05T17:37:43.390Z,3.30
2023-02-05T17:40:13.702Z,3.30
2023-02-05T17:42:42.538Z,3.30
2023-02-05T17:45:20.077Z,3.20
2023-02-05T17:47:47.751Z,3.20
2023-02-05T17:50:15.682Z,3.10
2023-02-05T17:52:46.210Z,3.10
2023-02-05T17:55:16.523Z,3.20
2023-02-05T17:57:44.761Z,3.20
2023-02-05T18:00:15.620Z,3.20
2023-02-05T18:02:42.774Z,3.20
2023-02-05T18:05:11.982Z,3.20
2023-02-05T18:08:07.232Z,3.20
2023-02-05T18:10:35.053Z,3.20
2023-02-05T18:13:03.056Z,3.20
2023-02-05T18:15:32.771Z,3.20
2023-02-05T18:17:59.889Z,3.10
2023-02-05T18:20:27.058Z,3.10
2023-02-05T18:22:54.195Z,3.10
2023-02-05T18:25:23.116Z,3.10
2023-02-05T18:27:50.450Z,3.10
2023-02-05T18:30:17.744Z,3.10
2023-02-05T18:32:46.859Z,3.10
2023-02-05T18:35:14.874Z,3.10
2023-02-05T18:37:44.335Z,3.00
2023-02-05T18:40:13.810Z,3.00
2023-02-05T18:42:41.704Z,3.10
2023-02-05T18:45:10.075Z,3.10
2023-02-05T18:47:37.277Z,3.10
2023-02-05T18:50:05.385Z,3.20
2023-02-05T18:52:32.648Z,3.10
2023-02-05T18:54:59.727Z,3.10
2023-02-05T18:57:26.825Z,3.10
2023-02-05T18:59:54.221Z,3.10
2023-02-05T19:02:21.371Z,3.00
2023-02-05T19:04:52.202Z,3.00
2023-02-05T19:07:21.511Z,3.00
2023-02-05T19:09:50.750Z,3.00
2023-02-05T19:12:19.004Z,3.00
2023-02-05T19:14:46.228Z,3.00
2023-02-05T19:17:13.400Z,3.00
2023-02-05T19:19:40.579Z,3.00
2023-02-05T19:22:07.754Z,3.00
2023-02-05T19:24:36.202Z,3.00
2023-02-05T19:27:03.269Z,3.00
2023-02-05T19:29:30.758Z,2.90
2023-02-05T19:31:58.738Z,2.90
2023-02-05T19:34:27.856Z,2.90
2023-02-05T19:36:54.960Z,2.90
2023-02-05T19:39:25.244Z,2.90
2023-02-05T19:41:52.959Z,2.80
2023-02-05T19:44:20.300Z,2.80
2023-02-05T19:46:48.883Z,2.70
2023-02-05T19:49:20.101Z,2.60
2023-02-05T19:51:54.468Z,2.50
2023-02-05T19:54:21.920Z,2.40
2023-02-05T19:56:49.532Z,2.30
2023-02-05T19:59:17.126Z,2.30
2023-02-05T20:01:45.573Z,2.30
2023-02-05T20:04:17.240Z,2.30
2023-02-05T20:06:46.546Z,2.30
2023-02-05T20:09:16.621Z,2.30
2023-02-05T20:11:50.999Z,2.30
2023-02-05T20:14:18.990Z,2.40
2023-02-05T20:16:47.084Z,2.40
2023-02-05T20:19:17.263Z,2.40
2023-02-05T20:21:46.503Z,2.40
2023-02-05T20:24:13.741Z,2.40
2023-02-05T20:26:41.099Z,2.40
2023-02-05T20:29:34.723Z,2.50
2023-02-05T20:32:02.290Z,2.50
2023-02-05T20:34:35.614Z,2.50
2023-02-05T20:37:06.837Z,2.60
2023-02-05T20:39:35.414Z,2.50
2023-02-05T20:42:02.930Z,2.50
2023-02-05T20:44:33.993Z,2.50
2023-02-05T20:47:01.090Z,2.60
2023-02-05T20:49:28.827Z,2.60
2023-02-05T20:51:56.056Z,2.60
2023-02-05T20:54:23.621Z,2.60
2023-02-05T20:56:51.862Z,2.50
2023-02-05T20:59:20.287Z,2.50
2023-02-05T21:01:47.582Z,2.50
2023-02-05T21:04:14.611Z,2.50
2023-02-05T21:06:41.751Z,2.40
2023-02-05T21:09:09.749Z,2.30
2023-02-05T21:11:38.317Z,2.30
2023-02-05T21:14:06.682Z,2.30
2023-02-05T21:16:35.773Z,2.30
2023-02-05T21:19:05.493Z,2.30
2023-02-05T21:21:36.120Z,2.30
2023-02-05T21:24:07.887Z,2.20
2023-02-05T21:26:45.008Z,2.30
2023-02-05T21:29:16.064Z,2.30
2023-02-05T21:31:53.939Z,2.30
2023-02-05T21:34:28.609Z,2.30
2023-02-05T21:36:56.621Z,2.40
2023-02-05T21:39:24.168Z,2.30
2023-02-05T21:41:53.317Z,2.30
2023-02-05T21:44:20.608Z,2.40
2023-02-05T21:46:50.686Z,2.30
2023-02-05T21:49:17.898Z,2.40
2023-02-05T21:51:45.079Z,2.40
2023-02-05T21:54:12.452Z,2.40
2023-02-05T21:56:42.651Z,2.30
2023-02-05T21:59:13.374Z,2.30
2023-02-05T22:01:41.984Z,2.20
2023-02-05T22:04:16.047Z,2.10
2023-02-05T22:06:44.454Z,2.00
2023-02-05T22:09:15.230Z,2.00
2023-02-05T22:11:43.347Z,1.90
2023-02-05T22:14:11.485Z,1.90
2023-02-05T22:16:39.144Z,1.90
2023-02-05T22:19:07.043Z,1.80
2023-02-05T22:21:37.564Z,1.80
2023-02-05T22:24:06.121Z,1.70
2023-02-05T22:26:39.098Z,1.80
2023-02-05T22:29:10.786Z,1.90
2023-02-05T22:31:37.998Z,1.90
2023-02-05T22:34:05.606Z,1.90
2023-02-05T22:36:35.031Z,2.00
2023-02-05T22:39:04.884Z,2.00
2023-02-05T22:41:36.296Z,2.00
2023-02-05T22:44:05.709Z,2.00
2023-02-05T22:46:37.462Z,2.00
2023-02-05T22:49:05.402Z,1.90
2023-02-05T22:51:42.500Z,1.90
2023-02-05T22:54:13.713Z,1.80
2023-02-05T22:56:40.975Z,1.80
2023-02-05T22:59:09.876Z,1.70
2023-02-05T23:01:39.177Z,1.70
2023-02-05T23:04:08.894Z,1.50
2023-02-05T23:06:40.429Z,1.50
2023-02-05T23:09:14.061Z,1.40
2023-02-05T23:11:42.043Z,1.40
2023-02-05T23:14:11.536Z,1.30
2023-02-05T23:16:42.527Z,1.30
2023-02-05T23:19:14.840Z,1.30
2023-02-05T23:21:44.081Z,1.40
2023-02-05T23:24:12.112Z,1.40
2023-02-05T23:26:44.510Z,1.40
2023-02-05T23:29:15.542Z,1.50
2023-02-05T23:31:43.313Z,1.40
2023-02-05T23:34:11.229Z,1.30
2023-02-05T23:36:38.376Z,1.30
2023-02-05T23:39:05.935Z,1.30
2023-02-05T23:41:36.553Z,1.20
2023-02-05T23:44:19.343Z,1.20
2023-02-05T23:46:49.312Z,1.10
2023-02-05T23:49:21.800Z,1.10
2023-02-05T23:51:50.294Z,1.00
2023-02-05T23:54:17.468Z,0.90
2023-02-05T23:56:44.798Z,0.90
2023-02-05T23:59:13.510Z,1.00
